sensor_id;sensor_type;location;lat;lon;timestamp;pressure;altitude;pressure_sealevel;temperature;humidity
13013;BME280;22580;57.670;12.006;2023-04-26T00:00:49;100159.97;;;14.92;58.78
13013;BME280;22580;57.670;12.006;2023-04-26T00:03:19;100137.66;;;14.82;59.12
13013;BME280;22580;57.670;12.006;2023-04-26T00:05:46;100158.88;;;14.85;59.37
13013;BME280;22580;57.670;12.006;2023-04-26T00:08:13;100160.03;;;14.83;59.74
13013;BME280;22580;57.670;12.006;2023-04-26T00:10:40;100147.81;;;14.88;59.37
13013;BME280;22580;57.670;12.006;2023-04-26T00:13:07;100162.47;;;14.76;59.54
13013;BME280;22580;57.670;12.006;2023-04-26T00:15:34;100165.56;;;14.81;59.49
13013;BME280;22580;57.670;12.006;2023-04-26T00:18:01;100162.81;;;14.73;59.48
13013;BME280;22580;57.670;12.006;2023-04-26T00:20:30;100161.03;;;14.82;59.46
13013;BME280;22580;57.670;12.006;2023-04-26T00:22:57;100167.25;;;14.64;60.05
13013;BME280;22580;57.670;12.006;2023-04-26T00:25:23;100163.84;;;14.62;60.18
13013;BME280;22580;57.670;12.006;2023-04-26T00:27:51;100158.72;;;14.69;60.04
13013;BME280;22580;57.670;12.006;2023-04-26T00:30:18;100158.31;;;14.64;59.78
13013;BME280;22580;57.670;12.006;2023-04-26T00:32:45;100154.50;;;14.66;60.04
13013;BME280;22580;57.670;12.006;2023-04-26T00:35:12;100136.59;;;14.38;60.30
13013;BME280;22580;57.670;12.006;2023-04-26T00:37:41;100138.19;;;14.31;60.71
13013;BME280;22580;57.670;12.006;2023-04-26T00:40:08;100168.31;;;14.44;60.42
13013;BME280;22580;57.670;12.006;2023-04-26T00:42:37;100156.72;;;14.34;60.42
13013;BME280;22580;57.670;12.006;2023-04-26T00:45:05;100166.78;;;14.41;60.60
13013;BME280;22580;57.670;12.006;2023-04-26T00:47:32;100149.25;;;14.28;60.56
13013;BME280;22580;57.670;12.006;2023-04-26T00:50:00;100144.75;;;14.19;60.90
13013;BME280;22580;57.670;12.006;2023-04-26T00:52:28;100165.34;;;14.37;60.39
13013;BME280;22580;57.670;12.006;2023-04-26T00:54:57;100172.25;;;14.40;60.62
13013;BME280;22580;57.670;12.006;2023-04-26T00:57:24;100157.75;;;14.23;60.80
13013;BME280;22580;57.670;12.006;2023-04-26T00:59:51;100170.00;;;14.35;60.51
13013;BME280;22580;57.670;12.006;2023-04-26T01:02:18;100171.72;;;14.46;60.25
13013;BME280;22580;57.670;12.006;2023-04-26T01:04:45;100180.78;;;14.45;60.44
13013;BME280;22580;57.670;12.006;2023-04-26T01:07:12;100176.97;;;14.28;60.94
13013;BME280;22580;57.670;12.006;2023-04-26T01:09:39;100168.47;;;14.33;60.96
13013;BME280;22580;57.670;12.006;2023-04-26T01:12:10;100170.44;;;14.31;61.22
13013;BME280;22580;57.670;12.006;2023-04-26T01:14:38;100167.88;;;14.39;61.26
13013;BME280;22580;57.670;12.006;2023-04-26T01:17:05;100174.41;;;14.46;60.25
13013;BME280;22580;57.670;12.006;2023-04-26T01:19:32;100175.50;;;14.53;60.37
13013;BME280;22580;57.670;12.006;2023-04-26T01:22:01;100168.38;;;14.62;60.18
13013;BME280;22580;57.670;12.006;2023-04-26T01:24:31;100178.78;;;14.74;60.01
13013;BME280;22580;57.670;12.006;2023-04-26T01:27:00;100174.56;;;14.72;59.80
13013;BME280;22580;57.670;12.006;2023-04-26T01:29:26;100179.06;;;14.44;56.94
13013;BME280;22580;57.670;12.006;2023-04-26T01:31:53;100165.81;;;13.76;55.54
13013;BME280;22580;57.670;12.006;2023-04-26T01:34:20;100166.47;;;13.88;54.81
13013;BME280;22580;57.670;12.006;2023-04-26T01:36:47;100193.28;;;14.07;56.78
13013;BME280;22580;57.670;12.006;2023-04-26T01:39:14;100183.28;;;13.90;54.93
13013;BME280;22580;57.670;12.006;2023-04-26T01:41:42;100202.13;;;13.71;54.62
13013;BME280;22580;57.670;12.006;2023-04-26T01:44:09;100196.13;;;14.06;55.18
13013;BME280;22580;57.670;12.006;2023-04-26T01:46:36;100177.81;;;14.29;54.82
13013;BME280;22580;57.670;12.006;2023-04-26T01:49:03;100190.94;;;14.51;55.56
13013;BME280;22580;57.670;12.006;2023-04-26T01:51:30;100189.53;;;14.47;56.18
13013;BME280;22580;57.670;12.006;2023-04-26T01:53:59;100193.44;;;14.62;56.40
13013;BME280;22580;57.670;12.006;2023-04-26T01:56:26;100196.72;;;14.56;57.54
13013;BME280;22580;57.670;12.006;2023-04-26T01:58:54;100191.78;;;14.52;56.98
13013;BME280;22580;57.670;12.006;2023-04-26T02:01:21;100188.38;;;14.50;57.82
13013;BME280;22580;57.670;12.006;2023-04-26T02:03:49;100200.97;;;14.59;58.75
13013;BME280;22580;57.670;12.006;2023-04-26T02:06:16;100189.34;;;14.58;59.05
13013;BME280;22580;57.670;12.006;2023-04-26T02:08:44;100185.44;;;14.33;58.73
13013;BME280;22580;57.670;12.006;2023-04-26T02:11:11;100186.34;;;14.15;58.76
13013;BME280;22580;57.670;12.006;2023-04-26T02:13:38;100180.38;;;14.21;59.03
13013;BME280;22580;57.670;12.006;2023-04-26T02:16:06;100215.88;;;14.34;59.62
13013;BME280;22580;57.670;12.006;2023-04-26T02:18:33;100214.72;;;14.46;59.45
13013;BME280;22580;57.670;12.006;2023-04-26T02:21:00;100203.53;;;14.51;59.83
13013;BME280;22580;57.670;12.006;2023-04-26T02:23:27;100192.38;;;14.46;59.81
13013;BME280;22580;57.670;12.006;2023-04-26T02:25:54;100171.75;;;14.27;60.36
13013;BME280;22580;57.670;12.006;2023-04-26T02:28:21;100183.38;;;14.08;61.57
13013;BME280;22580;57.670;12.006;2023-04-26T02:30:48;100201.91;;;14.11;62.39
13013;BME280;22580;57.670;12.006;2023-04-26T02:33:17;100192.84;;;14.22;62.18
13013;BME280;22580;57.670;12.006;2023-04-26T02:35:44;100194.25;;;14.16;62.80
13013;BME280;22580;57.670;12.006;2023-04-26T02:38:11;100201.16;;;14.28;62.98
13013;BME280;22580;57.670;12.006;2023-04-26T02:40:37;100201.28;;;14.36;62.42
13013;BME280;22580;57.670;12.006;2023-04-26T02:43:05;100193.66;;;14.32;62.71
13013;BME280;22580;57.670;12.006;2023-04-26T02:45:31;100180.06;;;14.33;62.62
13013;BME280;22580;57.670;12.006;2023-04-26T02:47:58;100187.25;;;14.52;62.81
13013;BME280;22580;57.670;12.006;2023-04-26T02:50:27;100195.31;;;14.52;62.84
13013;BME280;22580;57.670;12.006;2023-04-26T02:52:53;100191.94;;;14.50;63.16
13013;BME280;22580;57.670;12.006;2023-04-26T02:55:20;100187.13;;;14.34;64.00
13013;BME280;22580;57.670;12.006;2023-04-26T02:57:48;100190.25;;;14.39;63.55
13013;BME280;22580;57.670;12.006;2023-04-26T03:00:15;100187.13;;;14.34;63.79
13013;BME280;22580;57.670;12.006;2023-04-26T03:02:42;100185.59;;;14.41;63.35
13013;BME280;22580;57.670;12.006;2023-04-26T03:05:09;100184.16;;;14.47;63.13
13013;BME280;22580;57.670;12.006;2023-04-26T03:07:37;100182.91;;;14.41;63.11
13013;BME280;22580;57.670;12.006;2023-04-26T03:10:05;100185.84;;;14.38;62.89
13013;BME280;22580;57.670;12.006;2023-04-26T03:12:33;100165.47;;;14.36;63.18
13013;BME280;22580;57.670;12.006;2023-04-26T03:14:59;100181.47;;;14.37;63.17
13013;BME280;22580;57.670;12.006;2023-04-26T03:17:28;100169.91;;;14.27;63.18
13013;BME280;22580;57.670;12.006;2023-04-26T03:19:55;100181.31;;;14.39;63.31
13013;BME280;22580;57.670;12.006;2023-04-26T03:22:22;100173.84;;;14.42;63.31
13013;BME280;22580;57.670;12.006;2023-04-26T03:24:50;100175.28;;;14.27;63.54
13013;BME280;22580;57.670;12.006;2023-04-26T03:27:17;100161.13;;;14.25;64.16
13013;BME280;22580;57.670;12.006;2023-04-26T03:29:45;100168.47;;;14.42;63.94
13013;BME280;22580;57.670;12.006;2023-04-26T03:32:12;100174.13;;;14.30;64.84
13013;BME280;22580;57.670;12.006;2023-04-26T03:34:39;100165.63;;;14.34;64.99
13013;BME280;22580;57.670;12.006;2023-04-26T03:37:06;100174.69;;;14.33;64.73
13013;BME280;22580;57.670;12.006;2023-04-26T03:39:34;100165.63;;;14.34;64.66
13013;BME280;22580;57.670;12.006;2023-04-26T03:42:02;100172.28;;;14.30;64.84
13013;BME280;22580;57.670;12.006;2023-04-26T03:44:29;100160.47;;;14.14;64.93
13013;BME280;22580;57.670;12.006;2023-04-26T03:46:56;100177.00;;;14.19;65.02
13013;BME280;22580;57.670;12.006;2023-04-26T03:49:25;100179.41;;;14.22;64.88
13013;BME280;22580;57.670;12.006;2023-04-26T03:51:52;100184.63;;;14.23;64.77
13013;BME280;22580;57.670;12.006;2023-04-26T03:54:19;100168.25;;;14.07;64.52
13013;BME280;22580;57.670;12.006;2023-04-26T03:56:46;100185.19;;;14.27;64.47
13013;BME280;22580;57.670;12.006;2023-04-26T03:59:14;100186.19;;;14.16;64.60
13013;BME280;22580;57.670;12.006;2023-04-26T04:01:41;100184.78;;;14.12;65.01
13013;BME280;22580;57.670;12.006;2023-04-26T04:04:08;100194.69;;;14.11;64.71
13013;BME280;22580;57.670;12.006;2023-04-26T04:06:35;100173.66;;;13.97;65.12
13013;BME280;22580;57.670;12.006;2023-04-26T04:09:02;100179.44;;;14.02;65.37
13013;BME280;22580;57.670;12.006;2023-04-26T04:11:30;100177.63;;;13.93;65.17
13013;BME280;22580;57.670;12.006;2023-04-26T04:13:57;100189.47;;;14.10;64.68
13013;BME280;22580;57.670;12.006;2023-04-26T04:16:25;100177.03;;;13.99;65.03
13013;BME280;22580;57.670;12.006;2023-04-26T04:18:52;100192.31;;;13.99;65.44
13013;BME280;22580;57.670;12.006;2023-04-26T04:21:19;100168.56;;;13.94;65.21
13013;BME280;22580;57.670;12.006;2023-04-26T04:23:46;100178.88;;;13.99;65.05
13013;BME280;22580;57.670;12.006;2023-04-26T04:26:13;100192.19;;;13.91;65.47
13013;BME280;22580;57.670;12.006;2023-04-26T04:28:40;100191.47;;;13.98;65.58
13013;BME280;22580;57.670;12.006;2023-04-26T04:31:09;100191.75;;;13.95;65.89
13013;BME280;22580;57.670;12.006;2023-04-26T04:33:38;100193.72;;;14.03;65.50
13013;BME280;22580;57.670;12.006;2023-04-26T04:36:06;100198.22;;;14.12;65.46
13013;BME280;22580;57.670;12.006;2023-04-26T04:38:34;100196.09;;;14.16;65.07
13013;BME280;22580;57.670;12.006;2023-04-26T04:41:01;100190.59;;;14.17;65.34
13013;BME280;22580;57.670;12.006;2023-04-26T04:43:28;100202.75;;;14.21;65.20
13013;BME280;22580;57.670;12.006;2023-04-26T04:45:55;100204.59;;;14.11;65.41
13013;BME280;22580;57.670;12.006;2023-04-26T04:48:22;100212.38;;;14.04;65.83
13013;BME280;22580;57.670;12.006;2023-04-26T04:50:51;100209.53;;;14.16;65.80
13013;BME280;22580;57.670;12.006;2023-04-26T04:53:18;100210.25;;;14.18;68.06
13013;BME280;22580;57.670;12.006;2023-04-26T04:55:45;100200.03;;;14.31;67.87
13013;BME280;22580;57.670;12.006;2023-04-26T04:58:11;100206.47;;;14.57;68.22
13013;BME280;22580;57.670;12.006;2023-04-26T05:00:39;100201.25;;;14.56;65.59
13013;BME280;22580;57.670;12.006;2023-04-26T05:03:06;100205.94;;;14.54;64.92
13013;BME280;22580;57.670;12.006;2023-04-26T05:05:34;100190.59;;;14.64;65.36
13013;BME280;22580;57.670;12.006;2023-04-26T05:08:02;100200.66;;;14.62;65.25
13013;BME280;22580;57.670;12.006;2023-04-26T05:10:32;100195.31;;;14.80;63.94
13013;BME280;22580;57.670;12.006;2023-04-26T05:12:59;100204.81;;;14.74;64.79
13013;BME280;22580;57.670;12.006;2023-04-26T05:15:26;100200.00;;;14.77;64.71
13013;BME280;22580;57.670;12.006;2023-04-26T05:17:53;100198.75;;;14.45;69.07
13013;BME280;22580;57.670;12.006;2023-04-26T05:20:20;100203.78;;;14.85;64.20
13013;BME280;22580;57.670;12.006;2023-04-26T05:22:47;100169.28;;;14.53;62.98
13013;BME280;22580;57.670;12.006;2023-04-26T05:25:16;100185.50;;;14.14;63.46
13013;BME280;22580;57.670;12.006;2023-04-26T05:27:43;100199.00;;;15.06;63.02
13013;BME280;22580;57.670;12.006;2023-04-26T05:30:11;100196.50;;;14.95;60.03
13013;BME280;22580;57.670;12.006;2023-04-26T05:32:38;100199.44;;;15.01;56.46
13013;BME280;22580;57.670;12.006;2023-04-26T05:35:06;100207.16;;;15.14;56.26
13013;BME280;22580;57.670;12.006;2023-04-26T05:37:33;100219.56;;;14.23;55.17
13013;BME280;22580;57.670;12.006;2023-04-26T05:40:01;100225.59;;;13.69;57.48
13013;BME280;22580;57.670;12.006;2023-04-26T05:42:31;100238.28;;;13.28;61.38
13013;BME280;22580;57.670;12.006;2023-04-26T05:44:58;100232.06;;;12.78;64.19
13013;BME280;22580;57.670;12.006;2023-04-26T05:47:25;100266.25;;;12.86;63.42
13013;BME280;22580;57.670;12.006;2023-04-26T05:49:52;100242.94;;;13.26;65.54
13013;BME280;22580;57.670;12.006;2023-04-26T05:52:19;100236.31;;;13.30;65.60
13013;BME280;22580;57.670;12.006;2023-04-26T05:54:46;100233.22;;;13.73;64.86
13013;BME280;22580;57.670;12.006;2023-04-26T05:57:13;100242.22;;;14.21;65.25
13013;BME280;22580;57.670;12.006;2023-04-26T05:59:41;100173.34;;;14.10;61.74
13013;BME280;22580;57.670;12.006;2023-04-26T06:02:08;100225.81;;;14.14;60.15
13013;BME280;22580;57.670;12.006;2023-04-26T06:04:36;100253.66;;;14.42;60.41
13013;BME280;22580;57.670;12.006;2023-04-26T06:07:03;100211.41;;;13.96;59.63
13013;BME280;22580;57.670;12.006;2023-04-26T06:09:34;100251.75;;;13.86;59.45
13013;BME280;22580;57.670;12.006;2023-04-26T06:12:02;100251.75;;;13.67;60.01
13013;BME280;22580;57.670;12.006;2023-04-26T06:14:29;100258.50;;;14.09;60.05
13013;BME280;22580;57.670;12.006;2023-04-26T06:16:57;100257.03;;;14.34;59.18
13013;BME280;22580;57.670;12.006;2023-04-26T06:19:24;100256.13;;;14.72;58.45
13013;BME280;22580;57.670;12.006;2023-04-26T06:21:52;100246.28;;;14.81;58.12
13013;BME280;22580;57.670;12.006;2023-04-26T06:24:22;100247.88;;;14.08;59.16
13013;BME280;22580;57.670;12.006;2023-04-26T06:26:49;100250.47;;;14.66;58.03
13013;BME280;22580;57.670;12.006;2023-04-26T06:29:16;100263.97;;;14.56;57.56
13013;BME280;22580;57.670;12.006;2023-04-26T06:31:43;100253.34;;;14.55;56.90
13013;BME280;22580;57.670;12.006;2023-04-26T06:34:11;100262.22;;;14.65;56.33
13013;BME280;22580;57.670;12.006;2023-04-26T06:36:38;100243.06;;;14.11;58.13
13013;BME280;22580;57.670;12.006;2023-04-26T06:39:06;100250.63;;;13.79;58.39
13013;BME280;22580;57.670;12.006;2023-04-26T06:41:33;100263.00;;;14.48;58.15
13013;BME280;22580;57.670;12.006;2023-04-26T06:43:59;100250.66;;;14.35;57.73
13013;BME280;22580;57.670;12.006;2023-04-26T06:46:26;100258.97;;;14.71;54.96
13013;BME280;22580;57.670;12.006;2023-04-26T06:48:53;100254.78;;;14.39;55.42
13013;BME280;22580;57.670;12.006;2023-04-26T06:51:22;100257.06;;;14.44;54.87
13013;BME280;22580;57.670;12.006;2023-04-26T06:53:49;100263.00;;;14.75;54.96
13013;BME280;22580;57.670;12.006;2023-04-26T06:56:16;100276.00;;;14.52;55.77
13013;BME280;22580;57.670;12.006;2023-04-26T06:58:57;100244.00;;;14.86;54.92
13013;BME280;22580;57.670;12.006;2023-04-26T07:01:25;100270.72;;;14.70;53.85
13013;BME280;22580;57.670;12.006;2023-04-26T07:03:54;100279.59;;;13.75;53.79
13013;BME280;22580;57.670;12.006;2023-04-26T07:06:25;100273.50;;;13.54;50.04
13013;BME280;22580;57.670;12.006;2023-04-26T07:08:52;100271.78;;;14.11;49.31
13013;BME280;22580;57.670;12.006;2023-04-26T07:11:19;100288.59;;;12.96;48.86
13013;BME280;22580;57.670;12.006;2023-04-26T07:13:46;100285.13;;;12.74;47.52
13013;BME280;22580;57.670;12.006;2023-04-26T07:16:13;100283.91;;;13.28;47.44
13013;BME280;22580;57.670;12.006;2023-04-26T07:18:40;100280.00;;;13.52;46.87
13013;BME280;22580;57.670;12.006;2023-04-26T07:21:07;100276.28;;;14.49;45.09
13013;BME280;22580;57.670;12.006;2023-04-26T07:23:35;100288.16;;;14.37;41.65
13013;BME280;22580;57.670;12.006;2023-04-26T07:26:04;100304.28;;;12.70;45.73
13013;BME280;22580;57.670;12.006;2023-04-26T07:28:31;100290.47;;;14.22;42.39
13013;BME280;22580;57.670;12.006;2023-04-26T07:30:59;100298.38;;;14.04;43.21
13013;BME280;22580;57.670;12.006;2023-04-26T07:33:27;100288.50;;;13.95;43.96
13013;BME280;22580;57.670;12.006;2023-04-26T07:35:55;100281.56;;;14.78;44.00
13013;BME280;22580;57.670;12.006;2023-04-26T07:38:23;100282.00;;;14.73;43.85
13013;BME280;22580;57.670;12.006;2023-04-26T07:40:51;100273.34;;;14.42;44.02
13013;BME280;22580;57.670;12.006;2023-04-26T07:43:19;100289.34;;;14.05;44.17
13013;BME280;22580;57.670;12.006;2023-04-26T07:45:46;100305.19;;;13.99;44.82
13013;BME280;22580;57.670;12.006;2023-04-26T07:48:13;100290.19;;;14.82;44.23
13013;BME280;22580;57.670;12.006;2023-04-26T07:50:40;100288.59;;;14.52;45.73
13013;BME280;22580;57.670;12.006;2023-04-26T07:53:07;100304.13;;;15.04;44.65
13013;BME280;22580;57.670;12.006;2023-04-26T07:55:34;100304.31;;;14.37;44.40
13013;BME280;22580;57.670;12.006;2023-04-26T07:58:03;100314.22;;;14.56;45.05
13013;BME280;22580;57.670;12.006;2023-04-26T08:00:31;100311.41;;;15.22;43.32
13013;BME280;22580;57.670;12.006;2023-04-26T08:03:02;100305.84;;;14.96;42.38
13013;BME280;22580;57.670;12.006;2023-04-26T08:05:29;100321.81;;;15.07;43.29
13013;BME280;22580;57.670;12.006;2023-04-26T08:07:56;100293.59;;;15.11;41.54
13013;BME280;22580;57.670;12.006;2023-04-26T08:10:25;100318.34;;;14.87;41.13
13013;BME280;22580;57.670;12.006;2023-04-26T08:12:52;100317.72;;;15.03;43.70
13013;BME280;22580;57.670;12.006;2023-04-26T08:15:22;100314.59;;;15.35;43.18
13013;BME280;22580;57.670;12.006;2023-04-26T08:17:49;100335.44;;;14.96;41.34
13013;BME280;22580;57.670;12.006;2023-04-26T08:20:17;100354.53;;;14.65;39.16
13013;BME280;22580;57.670;12.006;2023-04-26T08:22:45;100315.94;;;13.70;41.37
13013;BME280;22580;57.670;12.006;2023-04-26T08:25:12;100326.50;;;13.62;41.08
13013;BME280;22580;57.670;12.006;2023-04-26T08:27:39;100321.16;;;14.29;41.02
13013;BME280;22580;57.670;12.006;2023-04-26T08:30:06;100330.66;;;13.85;40.14
13013;BME280;22580;57.670;12.006;2023-04-26T08:32:35;100320.44;;;13.60;40.68
13013;BME280;22580;57.670;12.006;2023-04-26T08:35:01;100355.59;;;13.47;40.62
13013;BME280;22580;57.670;12.006;2023-04-26T08:37:29;100347.19;;;14.58;39.39
13013;BME280;22580;57.670;12.006;2023-04-26T08:39:56;100351.16;;;14.34;39.35
13013;BME280;22580;57.670;12.006;2023-04-26T08:42:25;100368.56;;;14.21;39.42
13013;BME280;22580;57.670;12.006;2023-04-26T08:44:53;100344.91;;;14.72;38.92
13013;BME280;22580;57.670;12.006;2023-04-26T08:47:24;100334.59;;;14.49;38.97
13013;BME280;22580;57.670;12.006;2023-04-26T08:49:55;100361.34;;;14.11;39.56
13013;BME280;22580;57.670;12.006;2023-04-26T08:52:27;100358.50;;;14.32;40.18
13013;BME280;22580;57.670;12.006;2023-04-26T08:54:56;100352.34;;;14.79;38.44
13013;BME280;22580;57.670;12.006;2023-04-26T08:57:23;100369.34;;;14.89;38.31
13013;BME280;22580;57.670;12.006;2023-04-26T08:59:50;100344.94;;;14.43;39.11
13013;BME280;22580;57.670;12.006;2023-04-26T09:02:22;100371.59;;;14.93;38.73
13013;BME280;22580;57.670;12.006;2023-04-26T09:04:50;100366.72;;;15.06;39.50
13013;BME280;22580;57.670;12.006;2023-04-26T09:07:20;100365.72;;;15.07;38.53
13013;BME280;22580;57.670;12.006;2023-04-26T09:09:48;100374.25;;;15.03;39.14
13013;BME280;22580;57.670;12.006;2023-04-26T09:12:17;100385.84;;;14.57;38.01
13013;BME280;22580;57.670;12.006;2023-04-26T09:14:45;100379.88;;;14.72;39.48
13013;BME280;22580;57.670;12.006;2023-04-26T09:17:25;100384.97;;;15.59;38.47
13013;BME280;22580;57.670;12.006;2023-04-26T09:19:52;100389.91;;;15.27;37.04
13013;BME280;22580;57.670;12.006;2023-04-26T09:22:32;100376.94;;;14.47;37.68
13013;BME280;22580;57.670;12.006;2023-04-26T09:25:00;100381.59;;;14.45;37.84
13013;BME280;22580;57.670;12.006;2023-04-26T09:27:32;100390.09;;;14.50;39.09
13013;BME280;22580;57.670;12.006;2023-04-26T09:30:03;100389.28;;;14.96;37.28
13013;BME280;22580;57.670;12.006;2023-04-26T09:32:44;100391.94;;;15.05;39.25
13013;BME280;22580;57.670;12.006;2023-04-26T09:35:27;100390.38;;;15.50;37.66
13013;BME280;22580;57.670;12.006;2023-04-26T09:37:57;100409.06;;;15.51;38.00
13013;BME280;22580;57.670;12.006;2023-04-26T09:40:25;100397.56;;;15.22;38.77
13013;BME280;22580;57.670;12.006;2023-04-26T09:42:57;100395.09;;;15.38;38.73
13013;BME280;22580;57.670;12.006;2023-04-26T09:45:25;100365.94;;;14.87;38.35
13013;BME280;22580;57.670;12.006;2023-04-26T09:47:52;100383.50;;;15.28;37.23
13013;BME280;22580;57.670;12.006;2023-04-26T09:50:30;100398.19;;;15.70;36.83
13013;BME280;22580;57.670;12.006;2023-04-26T09:52:58;100372.09;;;15.71;37.13
13013;BME280;22580;57.670;12.006;2023-04-26T09:55:26;100409.84;;;15.34;37.07
13013;BME280;22580;57.670;12.006;2023-04-26T09:57:54;100399.44;;;14.65;38.91
13013;BME280;22580;57.670;12.006;2023-04-26T10:00:23;100423.81;;;15.57;37.87
13013;BME280;22580;57.670;12.006;2023-04-26T10:02:52;100413.81;;;14.73;38.12
13013;BME280;22580;57.670;12.006;2023-04-26T10:05:19;100428.75;;;15.15;37.52
13013;BME280;22580;57.670;12.006;2023-04-26T10:07:48;100410.47;;;14.52;37.70
13013;BME280;22580;57.670;12.006;2023-04-26T10:10:18;100375.22;;;14.46;37.67
13013;BME280;22580;57.670;12.006;2023-04-26T10:12:46;100403.31;;;14.99;38.19
13013;BME280;22580;57.670;12.006;2023-04-26T10:15:14;100430.53;;;14.87;38.17
13013;BME280;22580;57.670;12.006;2023-04-26T10:17:41;100424.66;;;15.11;37.44
13013;BME280;22580;57.670;12.006;2023-04-26T10:20:11;100418.06;;;14.76;37.39
13013;BME280;22580;57.670;12.006;2023-04-26T10:22:43;100417.41;;;15.21;37.38
13013;BME280;22580;57.670;12.006;2023-04-26T10:25:11;100436.00;;;15.04;36.70
13013;BME280;22580;57.670;12.006;2023-04-26T10:27:52;100448.50;;;14.86;35.65
13013;BME280;22580;57.670;12.006;2023-04-26T10:30:20;100436.06;;;14.27;35.42
13013;BME280;22580;57.670;12.006;2023-04-26T10:36:05;100444.63;;;15.18;36.18
13013;BME280;22580;57.670;12.006;2023-04-26T10:38:33;100418.09;;;15.23;34.79
13013;BME280;22580;57.670;12.006;2023-04-26T10:41:29;100432.06;;;14.99;36.07
13013;BME280;22580;57.670;12.006;2023-04-26T10:44:00;100442.84;;;14.31;35.53
13013;BME280;22580;57.670;12.006;2023-04-26T10:46:49;100433.34;;;14.95;35.82
13013;BME280;22580;57.670;12.006;2023-04-26T10:49:17;100413.78;;;14.93;35.11
13013;BME280;22580;57.670;12.006;2023-04-26T10:52:09;100452.66;;;14.52;35.87
13013;BME280;22580;57.670;12.006;2023-04-26T10:54:53;100473.50;;;14.09;35.50
13013;BME280;22580;57.670;12.006;2023-04-26T10:57:21;100456.47;;;14.59;35.84
13013;BME280;22580;57.670;12.006;2023-04-26T11:00:27;100460.72;;;14.61;35.68
13013;BME280;22580;57.670;12.006;2023-04-26T11:03:01;100458.78;;;15.29;34.93
13013;BME280;22580;57.670;12.006;2023-04-26T11:05:40;100466.41;;;15.34;34.85
13013;BME280;22580;57.670;12.006;2023-04-26T11:08:15;100478.59;;;15.38;34.54
13013;BME280;22580;57.670;12.006;2023-04-26T11:10:44;100469.03;;;14.87;34.43
13013;BME280;22580;57.670;12.006;2023-04-26T11:13:11;100467.22;;;15.44;34.38
13013;BME280;22580;57.670;12.006;2023-04-26T11:15:39;100491.03;;;14.73;34.84
13013;BME280;22580;57.670;12.006;2023-04-26T11:18:06;100470.75;;;14.79;36.04
13013;BME280;22580;57.670;12.006;2023-04-26T11:20:33;100469.03;;;15.06;34.35
13013;BME280;22580;57.670;12.006;2023-04-26T11:23:00;100454.78;;;14.67;34.22
13013;BME280;22580;57.670;12.006;2023-04-26T11:25:28;100450.22;;;14.87;35.16
13013;BME280;22580;57.670;12.006;2023-04-26T11:27:57;100478.50;;;15.67;34.89
13013;BME280;22580;57.670;12.006;2023-04-26T11:30:24;100476.84;;;15.47;35.46
13013;BME280;22580;57.670;12.006;2023-04-26T11:32:52;100471.31;;;14.92;34.82
13013;BME280;22580;57.670;12.006;2023-04-26T11:35:20;100445.28;;;14.73;34.89
13013;BME280;22580;57.670;12.006;2023-04-26T11:37:48;100480.50;;;14.99;36.12
13013;BME280;22580;57.670;12.006;2023-04-26T11:40:16;100476.25;;;15.06;34.33
13013;BME280;22580;57.670;12.006;2023-04-26T11:42:44;100469.28;;;15.13;34.52
13013;BME280;22580;57.670;12.006;2023-04-26T11:45:11;100490.06;;;15.77;33.79
13013;BME280;22580;57.670;12.006;2023-04-26T11:47:41;100457.06;;;16.20;33.59
13013;BME280;22580;57.670;12.006;2023-04-26T11:50:11;100486.59;;;15.94;32.83
13013;BME280;22580;57.670;12.006;2023-04-26T11:52:39;100449.03;;;16.11;33.06
13013;BME280;22580;57.670;12.006;2023-04-26T11:55:08;100420.44;;;16.00;32.64
13013;BME280;22580;57.670;12.006;2023-04-26T11:57:35;100495.91;;;15.26;33.27
13013;BME280;22580;57.670;12.006;2023-04-26T12:00:09;100490.81;;;15.69;33.74
13013;BME280;22580;57.670;12.006;2023-04-26T12:02:42;100523.31;;;15.68;33.09
13013;BME280;22580;57.670;12.006;2023-04-26T12:05:19;100506.56;;;15.08;33.91
13013;BME280;22580;57.670;12.006;2023-04-26T12:07:49;100540.03;;;14.17;35.49
13013;BME280;22580;57.670;12.006;2023-04-26T12:10:18;100522.50;;;15.48;34.44
13013;BME280;22580;57.670;12.006;2023-04-26T12:12:49;100514.31;;;15.40;34.40
13013;BME280;22580;57.670;12.006;2023-04-26T12:15:17;100507.13;;;16.05;33.09
13013;BME280;22580;57.670;12.006;2023-04-26T12:17:52;100509.25;;;16.29;33.42
13013;BME280;22580;57.670;12.006;2023-04-26T12:20:27;100502.94;;;15.46;34.02
13013;BME280;22580;57.670;12.006;2023-04-26T12:23:02;100534.16;;;15.39;33.56
13013;BME280;22580;57.670;12.006;2023-04-26T12:25:30;100542.28;;;14.91;33.28
13013;BME280;22580;57.670;12.006;2023-04-26T12:27:58;100516.16;;;15.39;33.02
13013;BME280;22580;57.670;12.006;2023-04-26T12:30:26;100542.69;;;14.96;33.35
13013;BME280;22580;57.670;12.006;2023-04-26T12:32:53;100532.22;;;15.68;32.74
13013;BME280;22580;57.670;12.006;2023-04-26T12:35:21;100527.00;;;15.67;32.21
13013;BME280;22580;57.670;12.006;2023-04-26T12:37:50;100528.38;;;15.05;32.09
13013;BME280;22580;57.670;12.006;2023-04-26T12:40:18;100522.59;;;16.03;31.87
13013;BME280;22580;57.670;12.006;2023-04-26T12:42:47;100529.66;;;15.20;33.47
13013;BME280;22580;57.670;12.006;2023-04-26T12:45:15;100518.47;;;15.15;32.51
13013;BME280;22580;57.670;12.006;2023-04-26T12:47:43;100509.59;;;15.89;32.01
13013;BME280;22580;57.670;12.006;2023-04-26T12:50:10;100568.31;;;15.38;30.97